Terminal Aerodrome Forecast
Issued by NWS Binghamton, NY

Current Version | Previous Version | Text Only | Print | Product List | Glossary On
Versions: 1 2 3 4 5 6 7 8 9 10 11 12 13 14 15 16 17 18 19 20 21 22 23 24 25 26
000
FTUS41 KBGM 251736
TAFBGM
TAF
KBGM 251736Z 2518/2618 16010G18KT P6SM -SHRA OVC012 WS020/20040KT
     FM252000 18010G18KT P6SM BKN020 OVC040
     FM252100 24010KT P6SM SCT030 BKN060
     FM260000 28007KT P6SM SCT250
     FM261500 29010G18KT P6SM FEW200=

USA.gov is the U.S. government's official web portal to all federal, state and local government web resources and services.